createdAt,value
2017-10-30T00:00:40.505Z,2.63
2017-10-30T00:03:10.370Z,3.53
2017-10-30T00:05:40.357Z,2.80
2017-10-30T00:08:10.231Z,4.87
2017-10-30T00:10:40.083Z,4.40
2017-10-30T00:13:09.965Z,2.90
2017-10-30T00:15:39.826Z,3.57
2017-10-30T00:18:09.699Z,4.00
2017-10-30T00:20:39.574Z,3.57
2017-10-30T00:23:09.581Z,4.30
2017-10-30T00:25:39.450Z,3.40
2017-10-30T00:28:09.365Z,3.10
2017-10-30T00:30:39.233Z,3.33
2017-10-30T00:33:09.108Z,3.93
2017-10-30T00:35:38.989Z,3.70
2017-10-30T00:38:08.827Z,2.93
2017-10-30T00:40:38.685Z,3.20
2017-10-30T00:43:08.527Z,3.63
2017-10-30T00:45:38.443Z,3.70
2017-10-30T00:48:08.354Z,2.70
2017-10-30T00:50:38.220Z,3.17
2017-10-30T00:53:08.080Z,2.53
2017-10-30T00:55:37.927Z,4.07
2017-10-30T00:58:07.923Z,2.23
2017-10-30T01:00:37.791Z,3.23
2017-10-30T01:03:07.688Z,2.30
2017-10-30T01:05:37.525Z,3.60
2017-10-30T01:08:07.460Z,3.70
2017-10-30T01:10:37.308Z,3.30
2017-10-30T01:13:07.173Z,3.57
2017-10-30T01:15:37.012Z,2.30
2017-10-30T01:18:06.917Z,2.70
2017-10-30T01:20:36.782Z,2.37
2017-10-30T01:23:06.713Z,2.30
2017-10-30T01:25:36.602Z,3.83
2017-10-30T01:28:06.454Z,3.17
2017-10-30T01:30:36.423Z,2.77
2017-10-30T01:33:06.270Z,2.50
2017-10-30T01:35:36.141Z,2.83
2017-10-30T01:38:06.047Z,2.50
2017-10-30T01:40:35.896Z,3.97
2017-10-30T01:43:05.772Z,3.33
2017-10-30T01:45:35.621Z,4.33
2017-10-30T01:48:05.509Z,2.13
2017-10-30T01:50:35.358Z,3.50
2017-10-30T01:53:05.219Z,2.57
2017-10-30T01:55:35.047Z,2.47
2017-10-30T01:58:04.874Z,2.57
2017-10-30T02:00:34.774Z,2.63
2017-10-30T02:03:04.626Z,2.13
2017-10-30T02:05:34.519Z,3.20
2017-10-30T02:08:04.385Z,1.90
2017-10-30T02:10:34.242Z,2.13
2017-10-30T02:13:04.229Z,3.10
2017-10-30T02:15:34.178Z,2.27
2017-10-30T02:18:04.034Z,2.57
2017-10-30T02:20:33.884Z,1.73
2017-10-30T02:23:03.754Z,2.10
2017-10-30T02:25:33.589Z,1.30
2017-10-30T02:28:03.451Z,2.00
2017-10-30T02:30:33.345Z,2.03
2017-10-30T02:33:03.188Z,2.20
2017-10-30T02:35:33.023Z,2.13
2017-10-30T02:38:02.867Z,1.97
2017-10-30T02:40:32.736Z,1.30
2017-10-30T02:43:02.564Z,2.27
2017-10-30T02:45:32.450Z,1.33
2017-10-30T02:48:02.291Z,1.20
2017-10-30T02:50:32.161Z,1.73
2017-10-30T02:53:01.987Z,1.23
2017-10-30T02:55:31.836Z,1.63
2017-10-30T02:58:01.711Z,2.40
2017-10-30T03:00:31.534Z,2.10
2017-10-30T03:03:01.410Z,1.63
2017-10-30T03:05:31.250Z,1.77
2017-10-30T03:08:01.174Z,1.40
2017-10-30T03:10:31.039Z,2.13
2017-10-30T03:13:00.877Z,1.37
2017-10-30T03:15:30.719Z,1.40
2017-10-30T03:18:00.561Z,2.17
2017-10-30T03:20:30.430Z,1.97
2017-10-30T03:23:00.264Z,1.30
2017-10-30T03:25:30.109Z,1.97
2017-10-30T03:27:59.950Z,1.90
2017-10-30T03:30:29.794Z,1.27
2017-10-30T03:32:59.680Z,1.53
2017-10-30T03:35:29.571Z,2.00
2017-10-30T03:37:59.447Z,1.27
2017-10-30T03:40:29.314Z,1.90
2017-10-30T03:42:59.221Z,2.40
2017-10-30T03:45:29.061Z,2.00
2017-10-30T03:47:58.907Z,1.80
2017-10-30T03:50:28.801Z,1.60
2017-10-30T03:52:58.687Z,1.77
2017-10-30T03:55:28.542Z,1.57
2017-10-30T03:57:58.433Z,1.70
2017-10-30T04:00:28.365Z,1.60
2017-10-30T04:02:58.223Z,1.60
2017-10-30T04:05:28.052Z,1.93
2017-10-30T04:07:58.003Z,1.97
2017-10-30T04:10:27.882Z,2.70
2017-10-30T04:12:57.758Z,1.23
2017-10-30T04:15:27.611Z,1.40
2017-10-30T04:17:57.503Z,1.10
2017-10-30T04:20:27.395Z,1.63
2017-10-30T04:22:57.269Z,1.60
2017-10-30T04:25:27.113Z,2.80
2017-10-30T04:27:56.962Z,1.37
2017-10-30T04:30:26.904Z,1.80
2017-10-30T04:32:56.759Z,1.93
2017-10-30T04:35:26.642Z,1.43
2017-10-30T04:37:56.500Z,1.40
2017-10-30T04:40:26.366Z,1.93
2017-10-30T04:42:56.225Z,1.60
2017-10-30T04:45:26.079Z,2.40
2017-10-30T04:47:55.962Z,2.40
2017-10-30T04:50:25.906Z,1.10
2017-10-30T04:52:55.865Z,1.60
2017-10-30T04:55:25.849Z,2.20
2017-10-30T04:57:55.722Z,1.40
2017-10-30T05:00:25.583Z,1.40
2017-10-30T05:02:55.442Z,1.70
2017-10-30T05:05:25.298Z,1.63
2017-10-30T05:07:55.206Z,1.47
2017-10-30T05:10:25.048Z,2.27
2017-10-30T05:12:54.882Z,1.77
2017-10-30T05:15:24.772Z,1.90
2017-10-30T05:17:54.655Z,1.40
2017-10-30T05:20:24.526Z,1.93
2017-10-30T05:22:54.428Z,0.90
2017-10-30T05:25:24.288Z,1.60
2017-10-30T05:27:54.159Z,1.40
2017-10-30T05:30:24.008Z,1.30
2017-10-30T05:32:54.098Z,1.50
2017-10-30T05:35:23.974Z,1.33
2017-10-30T05:37:53.859Z,1.63
2017-10-30T05:40:23.834Z,1.97
2017-10-30T05:42:53.714Z,1.27
2017-10-30T05:45:23.594Z,1.40
2017-10-30T05:47:53.565Z,2.23
2017-10-30T05:50:23.418Z,1.63
2017-10-30T05:52:53.320Z,1.30
2017-10-30T05:55:23.202Z,1.60
2017-10-30T05:57:53.257Z,1.30
2017-10-30T06:00:24.021Z,1.20
2017-10-30T06:02:53.880Z,1.40
2017-10-30T06:05:23.819Z,1.40
2017-10-30T06:07:53.683Z,1.97
2017-10-30T06:10:23.543Z,1.50
2017-10-30T06:12:53.392Z,1.50
2017-10-30T06:15:23.261Z,1.17
2017-10-30T06:17:53.103Z,1.47
2017-10-30T06:20:22.935Z,1.40
2017-10-30T06:22:52.810Z,1.80
2017-10-30T06:25:22.695Z,0.90
2017-10-30T06:27:52.571Z,1.20
2017-10-30T06:30:22.427Z,1.20
2017-10-30T06:32:52.243Z,0.90
2017-10-30T06:35:22.126Z,1.27
2017-10-30T06:37:51.996Z,1.23
2017-10-30T06:40:21.911Z,1.00
2017-10-30T06:42:51.814Z,1.87
2017-10-30T06:45:21.711Z,1.83
2017-10-30T06:47:51.555Z,2.00
2017-10-30T06:50:21.433Z,1.20
2017-10-30T06:52:51.285Z,1.07
2017-10-30T06:55:21.160Z,1.53
2017-10-30T06:57:51.005Z,1.33
2017-10-30T07:00:20.865Z,2.07
2017-10-30T07:02:57.587Z,1.57
2017-10-30T07:05:27.464Z,1.37
2017-10-30T07:07:57.334Z,1.37
2017-10-30T07:10:27.254Z,1.10
2017-10-30T07:12:57.118Z,1.70
2017-10-30T07:15:26.999Z,1.60
2017-10-30T07:17:56.871Z,2.27
2017-10-30T07:20:26.766Z,1.20
2017-10-30T07:22:56.681Z,1.53
2017-10-30T07:25:26.583Z,1.17
2017-10-30T07:27:56.499Z,2.47
2017-10-30T07:30:26.454Z,1.40
2017-10-30T07:32:56.302Z,1.17
2017-10-30T07:35:26.165Z,1.57
2017-10-30T07:37:56.007Z,1.20
2017-10-30T07:40:25.843Z,1.20
2017-10-30T07:42:55.747Z,1.00
2017-10-30T07:45:25.594Z,1.47
2017-10-30T07:47:55.477Z,1.50
2017-10-30T07:50:25.313Z,1.03
2017-10-30T07:52:55.180Z,1.23
2017-10-30T07:55:25.017Z,1.80
2017-10-30T07:57:54.840Z,1.10
2017-10-30T08:00:24.710Z,1.27
2017-10-30T08:02:54.561Z,1.97
2017-10-30T08:05:24.519Z,1.00
2017-10-30T08:07:54.374Z,1.13
2017-10-30T08:10:24.227Z,1.00
2017-10-30T08:12:54.174Z,1.47
2017-10-30T08:15:24.006Z,1.30
2017-10-30T08:17:53.903Z,2.13
2017-10-30T08:20:23.745Z,1.17
2017-10-30T08:22:53.636Z,3.77
2017-10-30T08:25:23.520Z,1.00
2017-10-30T08:27:53.400Z,1.20
2017-10-30T08:30:23.255Z,0.90
2017-10-30T08:32:53.078Z,1.53
2017-10-30T08:35:22.950Z,1.50
2017-10-30T08:37:52.801Z,1.10
2017-10-30T08:40:22.690Z,1.00
2017-10-30T08:42:52.578Z,1.10
2017-10-30T08:45:25.995Z,1.10
2017-10-30T08:47:55.839Z,1.57
2017-10-30T08:50:25.694Z,1.30
2017-10-30T08:52:55.608Z,1.00
2017-10-30T08:55:25.483Z,1.20
2017-10-30T08:57:55.371Z,1.13
2017-10-30T09:00:25.235Z,1.13
2017-10-30T09:02:55.069Z,1.40
2017-10-30T09:05:26.538Z,1.60
2017-10-30T09:07:56.603Z,1.03
2017-10-30T09:10:26.442Z,1.60
2017-10-30T09:12:56.334Z,1.63
2017-10-30T09:15:26.168Z,1.07
2017-10-30T09:17:56.031Z,1.27
2017-10-30T09:20:25.906Z,1.70
2017-10-30T09:22:55.758Z,1.10
2017-10-30T09:25:25.662Z,1.17
2017-10-30T09:27:55.504Z,1.17
2017-10-30T09:30:25.353Z,0.60
2017-10-30T09:32:55.252Z,0.90
2017-10-30T09:35:25.091Z,0.80
2017-10-30T09:37:55.007Z,1.20
2017-10-30T09:40:24.898Z,0.80
2017-10-30T09:42:54.774Z,1.00
2017-10-30T09:45:24.618Z,1.00
2017-10-30T09:47:54.518Z,0.97
2017-10-30T09:50:24.373Z,1.17
2017-10-30T09:52:54.229Z,0.87
2017-10-30T09:55:24.071Z,0.90
2017-10-30T09:57:53.910Z,1.27
2017-10-30T10:00:23.773Z,0.80
2017-10-30T10:02:53.639Z,1.50
2017-10-30T10:05:23.524Z,1.00
2017-10-30T10:07:53.362Z,1.50
2017-10-30T10:10:23.209Z,1.00
2017-10-30T10:12:53.119Z,0.70
2017-10-30T10:15:22.999Z,0.67
2017-10-30T10:17:52.884Z,0.90
2017-10-30T10:20:22.741Z,0.70
2017-10-30T10:22:52.767Z,0.70
2017-10-30T10:25:22.794Z,0.70
2017-10-30T10:27:52.717Z,1.03
2017-10-30T10:30:22.551Z,0.83
2017-10-30T10:32:54.091Z,0.90
2017-10-30T10:35:23.943Z,0.80
2017-10-30T10:40:51.249Z,1.20
2017-10-30T10:43:21.122Z,1.03
2017-10-30T10:45:50.972Z,0.73
2017-10-30T10:48:20.830Z,0.67
2017-10-30T10:50:50.759Z,1.20
2017-10-30T10:53:20.635Z,0.90
2017-10-30T10:55:50.475Z,0.70
2017-10-30T10:58:20.345Z,0.73
2017-10-30T11:00:50.197Z,0.70
2017-10-30T11:03:20.077Z,0.60
2017-10-30T11:05:50.025Z,1.97
2017-10-30T11:08:19.891Z,0.97
2017-10-30T11:10:49.767Z,0.73
2017-10-30T11:13:19.612Z,0.77
2017-10-30T11:15:49.510Z,1.30
2017-10-30T11:18:19.362Z,0.63
2017-10-30T11:20:49.223Z,0.90
2017-10-30T11:23:19.091Z,1.00
2017-10-30T11:25:49.079Z,0.87
2017-10-30T11:28:18.960Z,0.73
2017-10-30T11:30:48.830Z,1.13
2017-10-30T11:33:18.718Z,0.90
2017-10-30T11:35:48.582Z,1.07
2017-10-30T11:38:18.459Z,0.93
2017-10-30T11:40:48.315Z,0.83
2017-10-30T11:43:18.259Z,0.50
2017-10-30T11:45:48.098Z,1.07
2017-10-30T11:48:17.964Z,0.93
2017-10-30T11:50:47.837Z,0.73
2017-10-30T11:53:17.669Z,0.73
2017-10-30T11:55:47.661Z,0.80
2017-10-30T11:58:17.518Z,0.90
2017-10-30T12:00:47.460Z,1.40
2017-10-30T12:03:17.347Z,0.90
2017-10-30T12:05:47.329Z,0.90
2017-10-30T12:08:17.197Z,1.00
2017-10-30T12:10:47.061Z,0.83
2017-10-30T12:13:17.630Z,0.70
2017-10-30T12:15:47.500Z,0.90
2017-10-30T12:18:17.399Z,0.73
2017-10-30T12:20:47.268Z,1.20
2017-10-30T12:23:17.180Z,0.80
2017-10-30T12:25:47.033Z,0.67
2017-10-30T12:28:16.918Z,1.47
2017-10-30T12:30:46.761Z,0.67
2017-10-30T12:33:16.676Z,0.73
2017-10-30T12:35:46.534Z,0.90
2017-10-30T12:38:16.409Z,0.93
2017-10-30T12:40:46.341Z,1.00
2017-10-30T12:43:16.206Z,1.23
2017-10-30T12:45:46.062Z,1.10
2017-10-30T12:48:15.975Z,0.70
2017-10-30T12:50:45.869Z,1.10
2017-10-30T12:53:15.717Z,1.20
2017-10-30T12:55:45.579Z,0.70
2017-10-30T12:58:15.498Z,1.83
2017-10-30T13:00:45.369Z,0.90
2017-10-30T13:03:15.222Z,1.10
2017-10-30T13:05:45.088Z,0.53
2017-10-30T13:08:14.993Z,0.90
2017-10-30T13:10:44.873Z,2.17
2017-10-30T13:13:14.785Z,0.67
2017-10-30T13:15:44.662Z,1.10
2017-10-30T13:18:14.531Z,1.17
2017-10-30T13:20:44.373Z,0.97
2017-10-30T13:23:14.254Z,1.37
2017-10-30T13:25:44.094Z,1.27
2017-10-30T13:28:13.967Z,1.17
2017-10-30T13:30:43.853Z,1.43
2017-10-30T13:33:13.707Z,1.10
2017-10-30T13:35:43.720Z,1.47
2017-10-30T13:38:13.534Z,1.10
2017-10-30T13:40:43.435Z,1.77
2017-10-30T13:43:13.337Z,0.80
2017-10-30T13:45:43.234Z,2.17
2017-10-30T13:48:13.078Z,1.07
2017-10-30T13:50:42.936Z,0.93
2017-10-30T13:53:12.824Z,1.13
2017-10-30T13:55:42.683Z,1.20
2017-10-30T13:58:12.571Z,1.00
2017-10-30T14:00:42.413Z,1.23
2017-10-30T14:03:12.311Z,1.20
2017-10-30T14:05:42.161Z,1.70
2017-10-30T14:08:12.085Z,1.30
2017-10-30T14:10:41.987Z,1.03
2017-10-30T14:13:11.889Z,1.17
2017-10-30T14:15:41.990Z,1.67
2017-10-30T14:18:11.850Z,2.00
2017-10-30T14:20:41.742Z,1.30
2017-10-30T14:23:11.626Z,1.23
2017-10-30T14:25:41.518Z,0.93
2017-10-30T14:28:11.381Z,1.73
2017-10-30T14:30:41.243Z,1.60
2017-10-30T14:33:11.094Z,1.87
2017-10-30T14:35:40.962Z,1.10
2017-10-30T14:38:10.893Z,1.60
2017-10-30T14:40:40.824Z,2.03
2017-10-30T14:43:10.741Z,2.20
2017-10-30T14:45:40.579Z,0.97
2017-10-30T14:48:10.461Z,1.40
2017-10-30T14:50:40.469Z,1.70
2017-10-30T14:53:10.340Z,1.83
2017-10-30T14:55:40.234Z,2.27
2017-10-30T14:58:10.083Z,1.47
2017-10-30T15:00:39.974Z,1.50
2017-10-30T15:03:09.911Z,1.13
2017-10-30T15:05:39.774Z,1.30
2017-10-30T15:08:09.625Z,1.53
2017-10-30T15:10:39.522Z,1.33
2017-10-30T15:13:09.419Z,1.70
2017-10-30T15:15:39.285Z,1.53
2017-10-30T15:18:09.147Z,1.47
2017-10-30T15:20:39.019Z,1.47
2017-10-30T15:23:08.890Z,1.37
2017-10-30T15:25:38.744Z,1.40
2017-10-30T15:28:08.626Z,1.53
2017-10-30T15:30:38.483Z,1.10
2017-10-30T15:33:08.371Z,1.47
2017-10-30T15:35:38.216Z,1.53
2017-10-30T15:38:08.068Z,1.27
2017-10-30T15:40:38.008Z,1.87
2017-10-30T15:43:07.865Z,1.00
2017-10-30T15:45:37.768Z,1.50
2017-10-30T15:48:07.632Z,1.30
2017-10-30T15:50:37.503Z,1.70
2017-10-30T15:53:07.342Z,2.33
2017-10-30T15:55:37.817Z,1.70
2017-10-30T15:58:07.659Z,1.40
2017-10-30T16:00:37.549Z,1.40
2017-10-30T16:03:07.427Z,2.00
2017-10-30T16:05:37.517Z,1.83
2017-10-30T16:08:07.370Z,1.33
2017-10-30T16:10:37.270Z,1.50
2017-10-30T16:13:07.123Z,2.30
2017-10-30T16:15:37.599Z,1.80
2017-10-30T16:18:07.490Z,1.90
2017-10-30T16:20:37.368Z,1.77
2017-10-30T16:23:07.241Z,1.70
2017-10-30T16:25:37.214Z,2.10
2017-10-30T16:28:07.034Z,1.20
2017-10-30T16:30:36.919Z,1.67
2017-10-30T16:33:06.775Z,2.80
2017-10-30T16:35:36.762Z,1.87
2017-10-30T16:38:06.682Z,1.50
2017-10-30T16:40:36.565Z,1.37
2017-10-30T16:43:06.413Z,2.00
2017-10-30T16:45:36.391Z,2.00
2017-10-30T16:48:06.239Z,2.60
2017-10-30T16:50:36.106Z,1.80
2017-10-30T16:53:05.999Z,1.43
2017-10-30T16:55:35.892Z,3.70
2017-10-30T16:58:05.969Z,2.20
2017-10-30T17:00:35.828Z,1.70
2017-10-30T17:03:05.730Z,2.47
2017-10-30T17:05:35.583Z,2.50
2017-10-30T17:08:05.489Z,2.30
2017-10-30T17:10:35.360Z,2.33
2017-10-30T17:13:05.243Z,2.40
2017-10-30T17:15:35.114Z,2.20
2017-10-30T17:18:04.976Z,2.43
2017-10-30T17:20:34.946Z,2.33
2017-10-30T17:23:04.804Z,2.80
2017-10-30T17:25:34.690Z,2.00
2017-10-30T17:28:04.526Z,1.93
2017-10-30T17:30:34.429Z,2.43
2017-10-30T17:33:04.277Z,2.30
2017-10-30T17:35:34.139Z,2.73
2017-10-30T17:38:04.034Z,1.90
2017-10-30T17:40:33.890Z,2.97
2017-10-30T17:43:03.754Z,2.17
2017-10-30T17:45:33.610Z,1.97
2017-10-30T17:48:03.511Z,3.20
2017-10-30T17:50:33.392Z,2.23
2017-10-30T17:53:03.353Z,2.10
2017-10-30T17:55:33.202Z,2.67
2017-10-30T17:58:03.065Z,2.20
2017-10-30T18:00:32.949Z,2.50
2017-10-30T18:03:02.806Z,2.53
2017-10-30T18:05:32.756Z,2.80
2017-10-30T18:08:02.610Z,1.53
2017-10-30T18:10:32.515Z,2.40
2017-10-30T18:13:02.398Z,2.87
2017-10-30T18:15:32.273Z,2.37
2017-10-30T18:18:02.125Z,2.10
2017-10-30T18:20:32.001Z,2.43
2017-10-30T18:23:01.892Z,2.60
2017-10-30T18:25:31.900Z,2.20
2017-10-30T18:28:01.775Z,2.60
2017-10-30T18:30:31.623Z,2.70
2017-10-30T18:33:01.510Z,2.10
2017-10-30T18:35:31.399Z,2.37
2017-10-30T18:38:01.294Z,2.57
2017-10-30T18:40:31.178Z,3.00
2017-10-30T18:43:01.053Z,2.60
2017-10-30T18:45:31.073Z,1.87
2017-10-30T18:48:00.938Z,2.07
2017-10-30T18:50:30.842Z,1.93
2017-10-30T18:53:00.735Z,2.00
2017-10-30T18:55:30.645Z,2.47
2017-10-30T18:58:00.504Z,2.90
2017-10-30T19:00:31.213Z,2.20
2017-10-30T19:03:01.105Z,3.07
2017-10-30T19:05:30.998Z,1.83
2017-10-30T19:08:00.870Z,2.60
2017-10-30T19:10:30.791Z,2.67
2017-10-30T19:13:00.666Z,3.27
2017-10-30T19:15:30.578Z,2.10
2017-10-30T19:18:00.467Z,1.70
2017-10-30T19:20:30.368Z,1.70
2017-10-30T19:23:00.385Z,2.23
2017-10-30T19:25:30.299Z,2.80
2017-10-30T19:28:00.164Z,2.40
2017-10-30T19:30:30.011Z,1.90
2017-10-30T19:32:59.905Z,2.73
2017-10-30T19:35:29.866Z,2.20
2017-10-30T19:37:59.754Z,2.40
2017-10-30T19:40:29.611Z,2.00
2017-10-30T19:42:59.587Z,3.00
2017-10-30T19:45:29.438Z,2.90
2017-10-30T19:47:59.326Z,2.70
2017-10-30T19:50:29.213Z,3.10
2017-10-30T19:52:59.083Z,3.73
2017-10-30T19:55:28.958Z,3.93
2017-10-30T19:57:58.918Z,3.20
2017-10-30T20:00:28.815Z,3.50
2017-10-30T20:02:58.762Z,3.03
2017-10-30T20:05:34.203Z,2.67
2017-10-30T20:08:04.051Z,4.03
2017-10-30T20:13:42.644Z,2.57
2017-10-30T20:16:13.362Z,3.70
2017-10-30T20:18:43.244Z,3.43
2017-10-30T20:21:13.194Z,3.10
2017-10-30T20:23:43.276Z,3.30
2017-10-30T20:26:13.159Z,3.30
2017-10-30T20:28:42.998Z,2.90
2017-10-30T20:31:12.898Z,3.27
2017-10-30T20:33:42.924Z,3.70
2017-10-30T20:36:12.936Z,2.70
2017-10-30T20:38:42.836Z,3.43
2017-10-30T20:41:12.737Z,3.33
2017-10-30T20:43:42.706Z,2.63
2017-10-30T20:46:12.611Z,2.83
2017-10-30T20:48:42.518Z,3.40
2017-10-30T20:51:12.401Z,2.63
2017-10-30T20:53:42.473Z,2.50
2017-10-30T20:56:12.331Z,3.00
2017-10-30T20:58:42.253Z,2.53
2017-10-30T21:01:12.141Z,3.20
2017-10-30T21:03:42.049Z,2.70
2017-10-30T21:06:11.949Z,4.00
2017-10-30T21:08:41.818Z,3.10
2017-10-30T21:11:11.701Z,3.40
2017-10-30T21:13:41.619Z,2.93
2017-10-30T21:16:11.495Z,2.33
2017-10-30T21:18:41.469Z,3.57
2017-10-30T21:21:11.345Z,3.83
2017-10-30T21:23:41.239Z,4.63
2017-10-30T21:26:11.138Z,4.03
2017-10-30T21:28:40.980Z,2.93
2017-10-30T21:31:10.875Z,2.47
2017-10-30T21:33:40.775Z,2.40
2017-10-30T21:36:10.642Z,3.17
2017-10-30T21:38:40.477Z,3.57
2017-10-30T21:41:10.443Z,3.40
2017-10-30T21:43:40.331Z,3.13
2017-10-30T21:46:10.195Z,2.93
2017-10-30T21:48:40.062Z,2.70
2017-10-30T21:51:09.919Z,2.37
2017-10-30T21:53:39.826Z,2.47
2017-10-30T21:56:09.682Z,2.27
2017-10-30T21:58:39.637Z,2.97
2017-10-30T22:01:09.520Z,2.90
2017-10-30T22:03:39.403Z,3.90
2017-10-30T22:06:09.274Z,2.80
2017-10-30T22:08:39.150Z,3.07
2017-10-30T22:11:09.053Z,2.50
2017-10-30T22:13:38.894Z,3.30
2017-10-30T22:16:08.872Z,2.40
2017-10-30T22:18:38.729Z,2.40
2017-10-30T22:21:08.609Z,2.20
2017-10-30T22:23:38.506Z,2.20
2017-10-30T22:26:08.384Z,2.03
2017-10-30T22:28:38.237Z,2.90
2017-10-30T22:31:08.170Z,2.00
2017-10-30T22:33:38.052Z,2.10
2017-10-30T22:36:07.925Z,2.50
2017-10-30T22:38:37.849Z,1.97
2017-10-30T22:41:07.711Z,1.77
2017-10-30T22:43:37.638Z,2.17
2017-10-30T22:46:07.505Z,2.23
2017-10-30T22:48:37.369Z,2.10
2017-10-30T22:51:07.266Z,2.00
2017-10-30T22:53:37.105Z,2.30
2017-10-30T22:56:06.973Z,2.60
2017-10-30T22:58:36.843Z,2.40
2017-10-30T23:01:07.892Z,1.70
2017-10-30T23:03:37.765Z,2.27
2017-10-30T23:06:07.664Z,1.70
2017-10-30T23:08:37.612Z,2.07
2017-10-30T23:11:07.603Z,2.00
2017-10-30T23:13:37.513Z,2.00
2017-10-30T23:16:08.087Z,2.10
2017-10-30T23:18:37.942Z,1.73
2017-10-30T23:21:07.815Z,2.40
2017-10-30T23:23:38.251Z,1.90
2017-10-30T23:26:08.140Z,2.40
2017-10-30T23:28:38.091Z,2.37
2017-10-30T23:31:08.138Z,1.80
2017-10-30T23:33:37.973Z,1.70
2017-10-30T23:36:07.909Z,2.13
2017-10-30T23:38:37.850Z,2.40
2017-10-30T23:41:07.722Z,2.63
2017-10-30T23:43:37.577Z,3.67
2017-10-30T23:46:07.461Z,1.70
2017-10-30T23:48:37.314Z,1.80
2017-10-30T23:51:08.007Z,2.37
2017-10-30T23:53:37.848Z,1.63
2017-10-30T23:56:07.749Z,2.17
2017-10-30T23:58:37.609Z,1.73
